Time;durP1;ratioP1;P1;durP2;ratioP2;P2;SDS_P1;SDS_P2;PMS_P1;PMS_P2;Temp;Humidity;BMP_temperature;BMP_pressure;BME280_temperature;BME280_humidity;BME280_pressure;Samples;Min_cycle;Max_cycle;Signal;HPM_P1;HPM_P2
2023/06/29 00:00:59;;;;;;;3.10;2.10;;;;;;;17.95;52.68;99385.25;105421;1261;64942;-71
2023/06/29 00:03:27;;;;;;;5.00;2.40;;;;;;;17.91;52.85;99383.39;105375;1259;60468;-70
2023/06/29 00:05:55;;;;;;;5.10;2.20;;;;;;;17.87;52.94;99378.34;105570;1253;63993;-70
2023/06/29 00:08:24;;;;;;;7.30;2.40;;;;;;;17.82;53.20;99378.13;105759;1260;60461;-69
2023/06/29 00:10:55;;;;;;;4.40;2.20;;;;;;;17.79;53.27;99373.89;105788;1253;60558;-70
2023/06/29 00:13:24;;;;;;;3.10;2.10;;;;;;;17.77;53.43;99367.23;105617;1257;65330;-70
2023/06/29 00:15:51;;;;;;;3.60;2.00;;;;;;;17.73;53.59;99363.79;105581;1253;60457;-70
2023/06/29 00:18:18;;;;;;;4.70;1.90;;;;;;;17.71;53.75;99361.36;105702;1258;63989;-70
2023/06/29 00:20:46;;;;;;;4.80;2.00;;;;;;;17.70;53.83;99358.96;105789;1254;60414;-71
2023/06/29 00:23:13;;;;;;;5.20;2.10;;;;;;;17.70;53.81;99354.94;105616;1257;60456;-71
2023/06/29 00:25:41;;;;;;;4.50;2.40;;;;;;;17.68;53.88;99354.94;105729;1256;65239;-71
2023/06/29 00:28:10;;;;;;;5.10;2.20;;;;;;;17.65;53.96;99354.08;105633;1258;60519;-71
2023/06/29 00:30:37;;;;;;;8.30;2.40;;;;;;;17.62;54.02;99357.63;105644;1255;64157;-71
2023/06/29 00:33:04;;;;;;;3.30;2.10;;;;;;;17.57;54.13;99359.77;105590;1258;60342;-70
2023/06/29 00:35:32;;;;;;;4.10;2.00;;;;;;;17.51;54.31;99357.81;105546;1253;60455;-71
2023/06/29 00:37:59;;;;;;;4.30;2.20;;;;;;;17.48;54.45;99355.58;105703;1255;64983;-72
2023/06/29 00:40:26;;;;;;;4.90;2.10;;;;;;;17.46;54.53;99354.10;105778;1256;60508;-70
2023/06/29 00:42:52;;;;;;;4.40;2.90;;;;;;;17.47;54.66;99349.43;105607;1257;64031;-70
2023/06/29 00:45:19;;;;;;;3.90;2.50;;;;;;;17.44;54.66;99352.94;105760;1255;60526;-70
2023/06/29 00:47:47;;;;;;;4.90;2.40;;;;;;;17.42;54.73;99351.11;105690;1257;60548;-70
2023/06/29 00:50:13;;;;;;;4.60;2.10;;;;;;;17.39;54.71;99346.34;105572;1257;65174;-70
2023/06/29 00:52:43;;;;;;;4.40;2.40;;;;;;;17.36;54.83;99345.30;105573;1257;60523;-70
2023/06/29 00:55:10;;;;;;;5.10;2.10;;;;;;;17.34;54.84;99343.55;105620;1257;63834;-69
2023/06/29 00:57:39;;;;;;;3.90;2.40;;;;;;;17.33;54.87;99342.15;105353;1258;60432;-70
2023/06/29 01:00:10;;;;;;;6.10;2.50;;;;;;;17.28;54.90;99343.80;105693;1259;60409;-70
2023/06/29 01:02:40;;;;;;;7.00;2.10;;;;;;;17.26;54.92;99342.94;105399;1264;65388;-70
2023/06/29 01:05:09;;;;;;;4.80;2.70;;;;;;;17.25;54.98;99344.25;105577;1254;60549;-70
2023/06/29 01:07:41;;;;;;;5.40;2.50;;;;;;;17.25;54.99;99341.70;105650;1259;62695;-70
2023/06/29 01:10:09;;;;;;;3.70;2.20;;;;;;;17.25;55.14;99341.13;105579;1256;60425;-70
2023/06/29 01:12:36;;;;;;;4.30;2.20;;;;;;;17.24;55.00;99335.83;105503;1257;60533;-70
2023/06/29 01:15:04;;;;;;;3.50;2.10;;;;;;;17.21;55.08;99330.92;106754;1258;65301;-69
2023/06/29 01:17:31;;;;;;;6.30;2.10;;;;;;;17.19;55.16;99324.63;105333;1254;60703;-70
2023/06/29 01:19:58;;;;;;;5.20;2.50;;;;;;;17.17;55.23;99323.39;105651;1257;64082;-70
2023/06/29 01:22:29;;;;;;;11.00;2.20;;;;;;;17.15;55.21;99321.65;105386;1261;60450;-70
2023/06/29 01:24:59;;;;;;;4.60;2.20;;;;;;;17.13;55.21;99316.42;105338;1259;60405;-70
2023/06/29 01:27:28;;;;;;;3.90;2.10;;;;;;;17.10;55.38;99316.23;105516;1263;65290;-70
2023/06/29 01:30:00;;;;;;;4.50;2.40;;;;;;;17.07;55.38;99314.38;105895;1257;60552;-70
2023/06/29 01:32:34;;;;;;;4.20;2.40;;;;;;;17.04;55.34;99312.05;105872;1257;63747;-70
2023/06/29 01:35:02;;;;;;;3.00;2.10;;;;;;;17.03;55.49;99314.02;105689;1252;60465;-70
2023/06/29 01:37:37;;;;;;;4.10;2.40;;;;;;;17.02;55.45;99313.69;105669;1257;60518;-70
2023/06/29 01:40:06;;;;;;;3.30;2.10;;;;;;;17.04;55.55;99312.30;105648;1254;65002;-70
2023/06/29 01:42:33;;;;;;;6.10;2.50;;;;;;;17.07;55.34;99310.95;105656;1258;60479;-71
2023/06/29 01:45:00;;;;;;;2.30;1.90;;;;;;;17.08;55.32;99307.45;105582;1257;64023;-70
2023/06/29 01:47:27;;;;;;;3.70;2.00;;;;;;;17.07;55.31;99310.98;105834;1260;60442;-70
2023/06/29 01:49:54;;;;;;;3.20;1.80;;;;;;;17.04;55.22;99311.56;105381;1259;60445;-70
2023/06/29 01:52:21;;;;;;;3.50;2.00;;;;;;;16.99;55.35;99311.80;105662;1258;65101;-69
2023/06/29 01:54:47;;;;;;;4.30;2.10;;;;;;;16.95;55.37;99313.52;105912;1253;60455;-70
2023/06/29 01:57:14;;;;;;;3.40;1.90;;;;;;;16.92;55.39;99315.13;105926;1254;64060;-71
2023/06/29 01:59:43;;;;;;;3.10;1.90;;;;;;;16.89;55.51;99316.74;106150;1256;60463;-70
2023/06/29 02:02:10;;;;;;;4.30;1.80;;;;;;;16.88;55.53;99315.73;105596;1257;60533;-70
2023/06/29 02:04:37;;;;;;;4.90;2.20;;;;;;;16.87;55.53;99312.48;105571;1258;65205;-70
2023/06/29 02:07:04;;;;;;;2.90;2.00;;;;;;;16.86;55.56;99310.71;105754;1257;60546;-69
2023/06/29 02:09:31;;;;;;;3.10;2.10;;;;;;;16.86;55.66;99304.27;105923;1259;62840;-69
2023/06/29 02:11:58;;;;;;;9.80;2.50;;;;;;;16.88;55.58;99307.23;105622;1254;60394;-69
2023/06/29 02:14:24;;;;;;;4.60;2.00;;;;;;;16.88;55.57;99306.25;105585;1257;60394;-70
2023/06/29 02:16:51;;;;;;;4.30;2.10;;;;;;;16.86;55.72;99303.08;105509;1258;65227;-70
2023/06/29 02:19:18;;;;;;;6.10;2.30;;;;;;;16.86;55.72;99303.57;105683;1257;60546;-70
2023/06/29 02:21:45;;;;;;;4.50;2.10;;;;;;;16.88;55.72;99303.92;105904;1257;63846;-70
2023/06/29 02:24:12;;;;;;;4.40;2.20;;;;;;;16.87;55.91;99303.04;105663;1262;60381;-70
2023/06/29 02:26:39;;;;;;;3.80;2.10;;;;;;;16.85;55.87;99301.06;106086;1254;60520;-69
2023/06/29 02:29:05;;;;;;;4.30;2.10;;;;;;;16.81;55.95;99297.25;105610;1256;66135;-71
2023/06/29 02:31:33;;;;;;;5.10;2.50;;;;;;;16.77;56.01;99296.49;105727;1257;60533;-70
2023/06/29 02:34:01;;;;;;;6.80;2.60;;;;;;;16.74;56.09;99295.45;105589;1254;64031;-70
2023/06/29 02:36:28;;;;;;;3.60;2.60;;;;;;;16.72;56.22;99295.22;105791;1254;60843;-70
2023/06/29 02:38:55;;;;;;;3.80;2.20;;;;;;;16.71;56.24;99292.90;105693;1255;60637;-69
2023/06/29 02:41:22;;;;;;;3.90;2.30;;;;;;;16.69;56.43;99291.55;105655;1262;65210;-70
2023/06/29 02:43:49;;;;;;;4.70;2.30;;;;;;;16.66;56.58;99286.52;105605;1257;60540;-70
2023/06/29 02:46:17;;;;;;;4.20;2.30;;;;;;;16.65;56.63;99288.09;105562;1257;66183;-71
2023/06/29 02:48:44;;;;;;;4.80;2.30;;;;;;;16.66;56.65;99282.96;105593;1254;60514;-70
2023/06/29 02:51:11;;;;;;;6.60;2.40;;;;;;;16.67;56.84;99286.25;105469;1253;60439;-70
2023/06/29 02:53:40;;;;;;;3.40;2.30;;;;;;;16.67;56.88;99285.51;105423;1258;65120;-71
2023/06/29 02:56:07;;;;;;;5.80;2.40;;;;;;;16.67;56.94;99286.78;105462;1255;60534;-70
2023/06/29 02:58:33;;;;;;;3.90;2.40;;;;;;;16.66;56.94;99288.52;105636;1255;64056;-70
2023/06/29 03:01:02;;;;;;;6.50;2.70;;;;;;;16.65;56.99;99289.48;105505;1254;60887;-70
2023/06/29 03:03:29;;;;;;;9.80;3.60;;;;;;;16.67;57.14;99288.17;105586;1253;60542;-71
2023/06/29 03:05:56;;;;;;;3.70;2.50;;;;;;;16.68;57.25;99283.38;105637;1257;65216;-70
2023/06/29 03:08:23;;;;;;;5.60;2.70;;;;;;;16.69;57.27;99283.85;105551;1254;60537;-70
2023/06/29 03:10:51;;;;;;;6.10;2.80;;;;;;;16.71;57.35;99284.21;105617;1259;64084;-70
2023/06/29 03:13:18;;;;;;;3.60;2.50;;;;;;;16.71;57.44;99285.53;105616;1254;60324;-71
2023/06/29 03:15:46;;;;;;;3.80;2.60;;;;;;;16.74;57.55;99282.39;105593;1254;60470;-71
2023/06/29 03:18:13;;;;;;;4.40;2.40;;;;;;;16.77;57.62;99280.49;105694;1257;65186;-70
2023/06/29 03:20:40;;;;;;;4.90;2.50;;;;;;;16.81;57.59;99276.89;105644;1257;60560;-72
2023/06/29 03:23:07;;;;;;;4.70;2.60;;;;;;;16.85;57.74;99274.10;105506;1254;64102;-70
2023/06/29 03:25:35;;;;;;;6.60;2.90;;;;;;;16.88;57.82;99272.61;105571;1254;60501;-70
2023/06/29 03:28:02;;;;;;;5.70;2.90;;;;;;;16.92;57.89;99271.10;105652;1255;60423;-70
2023/06/29 03:30:30;;;;;;;2.90;2.00;;;;;;;16.99;58.04;99270.77;105598;1257;65045;-69
2023/06/29 03:32:58;;;;;;;7.10;2.20;;;;;;;17.06;57.97;99268.08;105469;1254;60413;-70
2023/06/29 03:35:25;;;;;;;4.50;2.40;;;;;;;17.13;57.91;99265.73;105645;1254;63804;-71
2023/06/29 03:37:52;;;;;;;4.10;2.20;;;;;;;17.22;57.86;99267.48;105514;1254;60460;-71
2023/06/29 03:40:19;;;;;;;5.70;2.40;;;;;;;17.31;57.70;99267.58;105553;1254;60495;-72
2023/06/29 03:42:46;;;;;;;6.40;2.30;;;;;;;17.39;57.45;99264.08;105545;1257;65105;-72
2023/06/29 03:45:13;;;;;;;4.50;2.40;;;;;;;17.48;57.27;99264.96;105524;1254;61918;-70
2023/06/29 03:47:40;;;;;;;4.60;2.10;;;;;;;17.58;57.14;99264.05;106251;1252;63987;-71
2023/06/29 03:50:07;;;;;;;6.10;2.20;;;;;;;17.67;56.63;99261.43;105843;1253;60326;-70
2023/06/29 03:52:34;;;;;;;3.60;1.90;;;;;;;17.78;56.49;99258.45;105554;1257;60364;-72
2023/06/29 03:55:01;;;;;;;5.70;1.70;;;;;;;17.92;56.31;99257.09;105603;1257;64990;-70
2023/06/29 03:57:28;;;;;;;3.80;1.60;;;;;;;18.04;55.88;99255.89;105581;1255;60510;-69
2023/06/29 03:59:55;;;;;;;4.40;1.40;;;;;;;18.16;55.51;99255.70;105589;1254;64084;-70
2023/06/29 04:02:22;;;;;;;2.60;1.30;;;;;;;18.26;54.98;99253.21;105407;1254;60340;-73
2023/06/29 04:04:49;;;;;;;3.60;1.70;;;;;;;18.33;54.35;99253.73;105819;1254;60431;-70
2023/06/29 04:07:16;;;;;;;3.90;1.60;;;;;;;18.39;54.23;99250.99;105473;1254;65215;-71
2023/06/29 04:09:43;;;;;;;2.70;1.30;;;;;;;18.44;54.05;99249.39;105173;1254;60394;-71
2023/06/29 04:12:10;;;;;;;3.80;1.50;;;;;;;18.49;53.76;99245.89;105472;1255;63838;-70
2023/06/29 04:14:37;;;;;;;2.70;1.20;;;;;;;18.55;53.66;99246.90;105696;1257;60393;-71
2023/06/29 04:17:04;;;;;;;4.10;1.50;;;;;;;18.60;53.41;99245.19;105403;1254;60851;-71
2023/06/29 04:19:33;;;;;;;2.30;1.20;;;;;;;18.66;53.49;99247.24;105676;1254;65445;-69
2023/06/29 04:22:00;;;;;;;2.80;1.50;;;;;;;18.73;53.37;99245.80;105693;1257;60517;-70
2023/06/29 04:24:27;;;;;;;3.00;1.30;;;;;;;18.79;53.20;99248.06;105554;1254;63841;-69
2023/06/29 04:26:54;;;;;;;2.10;1.20;;;;;;;18.83;53.08;99248.58;105357;1254;60368;-69
2023/06/29 04:29:21;;;;;;;1.70;1.10;;;;;;;18.87;52.88;99244.22;105551;1253;60468;-70
2023/06/29 04:31:50;;;;;;;3.20;1.40;;;;;;;18.92;52.93;99248.48;105343;1264;74801;-68
2023/06/29 04:34:17;;;;;;;2.20;1.20;;;;;;;18.96;52.76;99246.30;105247;1254;60472;-70
2023/06/29 04:36:47;;;;;;;2.90;1.30;;;;;;;18.98;52.53;99237.45;105603;1254;64075;-71
2023/06/29 04:39:15;;;;;;;2.70;1.10;;;;;;;19.01;52.55;99238.49;105553;1254;60509;-70
2023/06/29 04:41:42;;;;;;;2.90;1.30;;;;;;;19.04;52.48;99237.46;105612;1254;60533;-69
2023/06/29 04:44:08;;;;;;;3.70;1.20;;;;;;;19.06;52.53;99231.49;105602;1254;65225;-70
2023/06/29 04:46:39;;;;;;;2.60;1.30;;;;;;;19.11;52.69;99237.39;105612;1259;60996;-69
2023/06/29 04:49:06;;;;;;;3.80;1.30;;;;;;;19.19;52.60;99237.23;105577;1254;63899;-68
2023/06/29 04:51:37;;;;;;;3.80;1.40;;;;;;;19.23;52.68;99235.18;105502;1259;60537;-69
2023/06/29 04:54:07;;;;;;;2.40;1.20;;;;;;;19.29;52.80;99240.28;105296;1254;61029;-69
2023/06/29 04:56:35;;;;;;;4.00;1.10;;;;;;;19.36;52.65;99239.70;105528;1260;68035;-71
2023/06/29 04:59:02;;;;;;;2.00;1.10;;;;;;;19.45;52.71;99241.02;105587;1260;60527;-69
2023/06/29 05:01:29;;;;;;;2.60;1.30;;;;;;;19.55;52.43;99239.84;105438;1254;64045;-69
2023/06/29 05:03:59;;;;;;;3.30;1.30;;;;;;;19.65;52.32;99237.90;105290;1253;60531;-69
2023/06/29 05:06:29;;;;;;;3.60;1.30;;;;;;;19.78;52.39;99242.59;105399;1257;60438;-69
2023/06/29 05:08:57;;;;;;;3.00;1.10;;;;;;;19.91;51.87;99249.44;105498;1256;65264;-71
2023/06/29 05:11:25;;;;;;;3.60;1.20;;;;;;;19.98;51.74;99244.45;105084;1260;60571;-70
2023/06/29 05:13:52;;;;;;;2.00;0.90;;;;;;;20.08;51.58;99245.44;105297;1253;63872;-69
2023/06/29 05:16:19;;;;;;;3.10;1.40;;;;;;;20.17;51.43;99242.98;105364;1258;60502;-70
2023/06/29 05:18:46;;;;;;;4.10;1.10;;;;;;;20.22;51.28;99242.76;105573;1253;60470;-71
2023/06/29 05:21:14;;;;;;;2.80;1.30;;;;;;;20.25;50.95;99243.39;105754;1254;65227;-69
2023/06/29 05:23:41;;;;;;;3.10;1.20;;;;;;;20.23;50.97;99246.91;105144;1258;60524;-69
2023/06/29 05:26:07;;;;;;;2.20;1.00;;;;;;;20.20;51.16;99248.22;105379;1257;64058;-69
2023/06/29 05:28:34;;;;;;;3.20;1.10;;;;;;;20.17;51.03;99244.59;105383;1255;60436;-71
2023/06/29 05:31:01;;;;;;;2.10;1.00;;;;;;;20.13;51.19;99241.39;105549;1253;60488;-71
2023/06/29 05:33:28;;;;;;;2.30;1.00;;;;;;;20.16;51.52;99236.30;105486;1257;65137;-70
2023/06/29 05:35:55;;;;;;;3.00;1.30;;;;;;;20.23;51.47;99240.89;105678;1254;60545;-71
2023/06/29 05:38:21;;;;;;;2.50;1.10;;;;;;;20.23;51.17;99245.19;105806;1257;63907;-70
2023/06/29 05:40:48;;;;;;;2.00;1.10;;;;;;;20.19;51.26;99247.10;105749;1253;60414;-70
2023/06/29 05:43:15;;;;;;;1.90;1.00;;;;;;;20.13;51.19;99249.42;105503;1254;60525;-70
2023/06/29 05:45:42;;;;;;;1.40;1.00;;;;;;;20.08;51.37;99256.58;105563;1257;65191;-69
2023/06/29 05:48:09;;;;;;;5.60;1.40;;;;;;;20.04;51.49;99257.24;105602;1254;60534;-69
2023/06/29 05:50:36;;;;;;;3.60;1.20;;;;;;;20.02;51.78;99258.29;105591;1253;63838;-70
2023/06/29 05:53:04;;;;;;;1.90;1.10;;;;;;;20.02;51.82;99259.15;105488;1254;60594;-69
2023/06/29 05:55:30;;;;;;;2.70;1.10;;;;;;;20.01;51.80;99258.38;105760;1253;60410;-69
2023/06/29 05:57:57;;;;;;;2.90;1.20;;;;;;;19.99;51.83;99263.13;105558;1253;65125;-70
2023/06/29 06:00:25;;;;;;;3.20;1.10;;;;;;;19.97;52.07;99259.27;105335;1254;61153;-69
2023/06/29 06:02:53;;;;;;;1.20;0.90;;;;;;;19.95;52.08;99256.43;105438;1253;63921;-70
2023/06/29 06:05:21;;;;;;;2.90;1.10;;;;;;;19.92;52.49;99256.91;105272;1253;60537;-68
2023/06/29 06:07:49;;;;;;;2.90;1.00;;;;;;;19.90;52.65;99257.78;105624;1254;60611;-68
2023/06/29 06:10:16;;;;;;;2.10;1.30;;;;;;;19.90;52.65;99258.77;105853;1253;65182;-70
2023/06/29 06:12:42;;;;;;;1.80;1.10;;;;;;;19.89;52.71;99256.64;106129;1254;60515;-75
2023/06/29 06:15:11;;;;;;;1.20;0.90;;;;;;;19.90;52.70;99256.46;106432;1253;64063;-75
2023/06/29 06:17:38;;;;;;;1.90;1.10;;;;;;;19.90;52.71;99258.44;106445;1253;60524;-75
2023/06/29 06:20:06;;;;;;;1.40;1.10;;;;;;;19.90;52.93;99258.45;106255;1253;60464;-75
2023/06/29 06:22:33;;;;;;;3.20;1.30;;;;;;;19.94;52.95;99256.69;106240;1255;65022;-72
2023/06/29 06:25:00;;;;;;;1.70;1.10;;;;;;;19.95;52.84;99257.76;106165;1257;61111;-71
2023/06/29 06:27:27;;;;;;;1.60;0.90;;;;;;;19.94;52.84;99263.29;106295;1253;64071;-72
2023/06/29 06:29:53;;;;;;;1.80;0.90;;;;;;;19.90;53.01;99262.44;106234;1254;60443;-74
2023/06/29 06:32:24;;;;;;;3.90;1.30;;;;;;;19.86;53.18;99262.02;105585;1253;60454;-71
2023/06/29 06:34:51;;;;;;;2.60;0.90;;;;;;;19.87;53.23;99264.08;105812;1254;65297;-74
2023/06/29 06:37:18;;;;;;;3.70;1.10;;;;;;;19.87;53.31;99262.02;105822;1253;60452;-75
2023/06/29 06:39:45;;;;;;;2.60;1.00;;;;;;;19.85;53.46;99263.59;105721;1254;62764;-74
2023/06/29 06:42:12;;;;;;;3.90;1.00;;;;;;;19.82;53.58;99263.94;105763;1253;60681;-72
2023/06/29 06:44:52;;;;;;;1.70;0.90;;;;;;;19.80;53.78;99261.80;106471;1253;60410;-72
2023/06/29 06:47:19;;;;;;;1.60;0.90;;;;;;;19.82;53.63;99265.83;105665;1260;65352;-72
2023/06/29 06:49:47;;;;;;;5.80;1.20;;;;;;;19.84;53.63;99266.45;105766;1253;60639;-72
2023/06/29 06:52:13;;;;;;;3.40;1.10;;;;;;;19.82;53.67;99264.02;105800;1259;64399;-72
2023/06/29 06:54:41;;;;;;;2.30;1.10;;;;;;;19.80;53.84;99264.64;105829;1252;60505;-74
2023/06/29 06:57:08;;;;;;;4.10;1.20;;;;;;;19.80;53.90;99263.29;105944;1257;61346;-71
2023/06/29 06:59:34;;;;;;;3.30;1.10;;;;;;;19.81;53.84;99259.41;105836;1257;65069;-71
2023/06/29 07:02:01;;;;;;;1.90;1.10;;;;;;;19.84;53.92;99259.80;107087;1252;60230;-69
2023/06/29 07:04:28;;;;;;;2.00;1.10;;;;;;;19.90;54.03;99258.27;106020;1253;64196;-71
2023/06/29 07:06:54;;;;;;;12.20;1.20;;;;;;;19.96;54.07;99260.60;105900;1257;60393;-71
2023/06/29 07:09:21;;;;;;;4.20;1.40;;;;;;;20.02;54.01;99262.54;105753;1254;60416;-71
2023/06/29 07:11:48;;;;;;;2.10;1.10;;;;;;;20.06;53.82;99261.86;105895;1257;65144;-71
2023/06/29 07:14:16;;;;;;;15.30;1.80;;;;;;;20.06;53.64;99267.38;105879;1253;60463;-71
2023/06/29 07:16:47;;;;;;;3.30;1.30;;;;;;;20.04;53.65;99272.41;105881;1255;64074;-71
2023/06/29 07:19:14;;;;;;;2.30;1.30;;;;;;;19.96;53.72;99268.64;105978;1256;60428;-71
2023/06/29 07:21:44;;;;;;;1.70;1.50;;;;;;;19.93;54.22;99269.36;105873;1253;60455;-71
2023/06/29 07:24:31;;;;;;;2.90;1.60;;;;;;;19.90;54.25;99272.01;105763;1257;65225;-71
2023/06/29 07:26:57;;;;;;;3.30;1.60;;;;;;;19.86;54.36;99269.23;105976;1253;60495;-70
2023/06/29 07:29:24;;;;;;;3.90;1.60;;;;;;;19.84;54.50;99270.07;105807;1259;60559;-71
2023/06/29 07:31:50;;;;;;;3.30;1.70;;;;;;;19.82;54.61;99266.54;105842;1257;60433;-72
2023/06/29 07:34:22;;;;;;;2.90;1.70;;;;;;;19.86;54.68;99265.81;105852;1253;60440;-71
2023/06/29 07:36:49;;;;;;;2.10;1.50;;;;;;;19.88;54.84;99265.48;105969;1254;66716;-71
2023/06/29 07:39:16;;;;;;;2.70;1.70;;;;;;;19.91;54.68;99267.23;105808;1255;60410;-71
2023/06/29 07:41:43;;;;;;;5.00;1.80;;;;;;;19.97;54.79;99272.02;105850;1253;63757;-71
2023/06/29 07:44:10;;;;;;;3.10;1.70;;;;;;;20.01;54.75;99275.04;105692;1253;60546;-71
2023/06/29 07:46:36;;;;;;;1.80;1.50;;;;;;;20.00;54.66;99274.79;105841;1253;60511;-70
2023/06/29 07:49:03;;;;;;;2.90;1.50;;;;;;;19.96;54.64;99269.71;106049;1254;65269;-71
2023/06/29 07:51:32;;;;;;;2.10;1.70;;;;;;;19.95;54.64;99270.67;105962;1253;60412;-70
2023/06/29 07:54:03;;;;;;;3.60;1.70;;;;;;;19.96;54.86;99270.79;105874;1258;63995;-70
2023/06/29 07:56:31;;;;;;;3.30;2.10;;;;;;;20.01;54.75;99273.02;106038;1253;60420;-71
2023/06/29 07:59:01;;;;;;;3.20;2.00;;;;;;;20.07;54.68;99273.16;105920;1253;60476;-72
2023/06/29 08:01:28;;;;;;;3.70;2.00;;;;;;;20.13;54.78;99274.14;105926;1253;65180;-73
2023/06/29 08:03:55;;;;;;;4.30;2.10;;;;;;;20.21;54.79;99275.10;105942;1253;60493;-71
2023/06/29 08:06:33;;;;;;;4.20;1.80;;;;;;;20.34;54.49;99277.83;105951;1253;64486;-72
2023/06/29 08:09:03;;;;;;;2.70;1.90;;;;;;;20.45;54.52;99275.95;106036;1253;60495;-70
2023/06/29 08:11:30;;;;;;;3.30;2.00;;;;;;;20.57;54.25;99276.24;106044;1254;60313;-71
2023/06/29 08:13:57;;;;;;;2.60;1.60;;;;;;;20.64;54.03;99271.00;106112;1256;65049;-71
2023/06/29 08:16:24;;;;;;;3.70;2.00;;;;;;;20.66;53.79;99273.24;105600;1255;60534;-70
2023/06/29 08:18:51;;;;;;;5.60;2.10;;;;;;;20.64;53.79;99268.81;105882;1256;64106;-72
2023/06/29 08:21:19;;;;;;;3.10;2.00;;;;;;;20.64;53.83;99269.77;106015;1253;60510;-72
2023/06/29 08:23:48;;;;;;;3.80;2.30;;;;;;;20.65;53.67;99267.30;106055;1255;60430;-71
2023/06/29 08:26:15;;;;;;;3.10;2.10;;;;;;;20.67;53.79;99266.34;105909;1253;63691;-71
2023/06/29 08:28:42;;;;;;;3.90;1.90;;;;;;;20.68;53.84;99267.95;105943;1254;60440;-71
2023/06/29 08:31:09;;;;;;;7.00;1.90;;;;;;;20.70;53.86;99267.10;105930;1253;64022;-71
2023/06/29 08:33:37;;;;;;;3.20;1.70;;;;;;;20.71;53.86;99267.46;106004;1253;60522;-69
2023/06/29 08:36:04;;;;;;;2.10;1.80;;;;;;;20.74;53.93;99267.02;105926;1253;60536;-72
2023/06/29 08:38:31;;;;;;;4.20;2.20;;;;;;;20.79;53.80;99266.80;105931;1253;65332;-72
2023/06/29 08:40:58;;;;;;;4.40;1.90;;;;;;;20.84;53.90;99265.98;106050;1253;60371;-72
2023/06/29 08:43:26;;;;;;;3.80;2.00;;;;;;;20.91;53.75;99267.77;105941;1253;63785;-71
2023/06/29 08:45:52;;;;;;;2.50;2.00;;;;;;;20.94;53.58;99261.93;105933;1258;60473;-72
2023/06/29 08:48:20;;;;;;;7.00;2.30;;;;;;;20.98;53.29;99259.80;105955;1252;60492;-73
2023/06/29 08:50:51;;;;;;;4.30;1.90;;;;;;;21.02;53.16;99261.91;105991;1252;65157;-70
2023/06/29 08:53:18;;;;;;;3.00;2.10;;;;;;;21.00;52.92;99260.23;106032;1253;60405;-71
2023/06/29 08:55:45;;;;;;;2.90;2.20;;;;;;;20.98;53.08;99261.52;105720;1260;65967;-71
2023/06/29 08:58:12;;;;;;;4.00;2.40;;;;;;;20.95;53.00;99265.35;105975;1253;60544;-71
2023/06/29 09:00:40;;;;;;;3.70;2.10;;;;;;;20.89;53.09;99260.72;106045;1253;60476;-71
2023/06/29 09:03:07;;;;;;;3.40;2.10;;;;;;;20.84;53.64;99258.48;105898;1253;66727;-70
2023/06/29 09:05:37;;;;;;;3.10;2.50;;;;;;;20.82;54.23;99261.34;105846;1253;60534;-71
2023/06/29 09:08:04;;;;;;;3.40;2.60;;;;;;;20.74;54.62;99261.75;105918;1253;63863;-75
2023/06/29 09:10:33;;;;;;;3.00;2.30;;;;;;;20.65;55.39;99261.00;106034;1253;60403;-73
2023/06/29 09:13:02;;;;;;;6.10;2.60;;;;;;;20.61;55.85;99262.11;105875;1253;60411;-73
2023/06/29 09:15:29;;;;;;;5.70;2.80;;;;;;;20.54;56.41;99254.98;105914;1256;65220;-72
2023/06/29 09:17:56;;;;;;;5.10;2.80;;;;;;;20.50;56.80;99253.58;105852;1253;60515;-72
2023/06/29 09:20:25;;;;;;;4.10;3.10;;;;;;;20.50;57.22;99253.13;105697;1260;64027;-71
2023/06/29 09:22:52;;;;;;;4.30;2.90;;;;;;;20.52;57.37;99252.20;105824;1257;60451;-71
2023/06/29 09:25:18;;;;;;;5.60;2.90;;;;;;;20.60;57.40;99248.23;105905;1253;60419;-72
2023/06/29 09:28:05;;;;;;;4.70;2.60;;;;;;;20.68;57.14;99248.04;105923;1259;65259;-73
2023/06/29 09:30:39;;;;;;;4.70;3.00;;;;;;;20.72;57.06;99250.73;105772;1253;60550;-75
2023/06/29 09:33:10;;;;;;;3.70;2.70;;;;;;;20.73;56.97;99251.47;105946;1253;62867;-74
2023/06/29 09:35:44;;;;;;;4.50;3.10;;;;;;;20.74;56.87;99248.40;105965;1253;60463;-72
2023/06/29 09:38:10;;;;;;;5.80;3.10;;;;;;;20.72;56.52;99247.10;106098;1252;60534;-74
2023/06/29 09:40:51;;;;;;;8.20;3.30;;;;;;;20.72;56.50;99245.04;105788;1253;65314;-72
2023/06/29 09:43:21;;;;;;;3.90;2.70;;;;;;;20.75;56.65;99242.22;105682;1253;60476;-72
2023/06/29 09:45:47;;;;;;;3.40;2.90;;;;;;;20.82;56.52;99240.58;105816;1253;63896;-72
2023/06/29 09:48:14;;;;;;;3.70;2.90;;;;;;;20.91;56.38;99235.90;105921;1253;60432;-76
2023/06/29 09:50:50;;;;;;;5.40;3.30;;;;;;;21.06;56.63;99232.65;106006;1256;60536;-76
2023/06/29 09:53:27;;;;;;;4.50;3.00;;;;;;;21.24;57.02;99230.27;105706;1253;64344;-73
2023/06/29 09:55:55;;;;;;;4.80;3.40;;;;;;;21.36;57.06;99226.66;105591;1253;60542;-72
2023/06/29 09:58:22;;;;;;;3.50;3.20;;;;;;;21.47;57.44;99225.41;105916;1254;72623;-75
2023/06/29 10:00:50;;;;;;;5.80;3.40;;;;;;;21.56;57.23;99219.91;105771;1253;60479;-72
2023/06/29 10:03:17;;;;;;;3.90;3.00;;;;;;;21.64;57.17;99215.26;105820;1252;60399;-72
2023/06/29 10:05:43;;;;;;;4.10;3.30;;;;;;;21.69;56.85;99211.05;105673;1256;65573;-72
2023/06/29 10:08:11;;;;;;;6.00;3.20;;;;;;;21.71;56.87;99213.27;105431;1253;60452;-71
2023/06/29 10:10:38;;;;;;;7.50;3.20;;;;;;;21.74;56.86;99217.35;105817;1253;64103;-72
2023/06/29 10:13:06;;;;;;;4.90;3.20;;;;;;;21.77;56.79;99217.69;105856;1253;60388;-72
2023/06/29 10:15:35;;;;;;;8.50;3.80;;;;;;;21.74;57.00;99219.50;105795;1253;60449;-71
2023/06/29 10:18:06;;;;;;;9.70;3.70;;;;;;;21.73;57.22;99216.95;106050;1253;65075;-72
2023/06/29 10:20:33;;;;;;;14.50;3.40;;;;;;;21.80;57.87;99219.85;105734;1253;60625;-73
2023/06/29 10:23:02;;;;;;;4.30;3.40;;;;;;;21.95;57.74;99213.98;105761;1253;63820;-71
2023/06/29 10:25:28;;;;;;;4.60;3.00;;;;;;;22.17;57.58;99204.98;105891;1252;60486;-72
2023/06/29 10:27:58;;;;;;;4.50;2.20;;;;;;;22.39;56.58;99208.56;105943;1253;60466;-73
2023/06/29 10:30:24;;;;;;;4.10;2.00;;;;;;;22.54;55.61;99206.45;105673;1257;65829;-72
2023/06/29 10:32:52;;;;;;;6.80;1.90;;;;;;;22.61;54.52;99206.42;105374;1260;60540;-72
2023/06/29 10:35:19;;;;;;;6.10;1.90;;;;;;;22.61;53.87;99214.61;105739;1258;64118;-72
2023/06/29 10:37:50;;;;;;;2.50;1.90;;;;;;;22.53;54.09;99214.88;105744;1253;60426;-72
2023/06/29 10:40:17;;;;;;;2.80;1.80;;;;;;;22.40;54.26;99211.33;105947;1257;60444;-72
2023/06/29 10:42:55;;;;;;;3.10;1.90;;;;;;;22.31;54.77;99209.95;105794;1254;65354;-71
2023/06/29 10:45:22;;;;;;;2.80;1.60;;;;;;;22.32;55.22;99211.97;105794;1253;60514;-70
2023/06/29 10:47:55;;;;;;;3.10;1.60;;;;;;;22.38;54.80;99205.27;105580;1253;64026;-71
2023/06/29 10:50:25;;;;;;;2.80;1.70;;;;;;;22.50;54.41;99195.04;105944;1253;60603;-71
2023/06/29 10:52:52;;;;;;;3.30;1.80;;;;;;;22.68;54.59;99194.21;105606;1253;60428;-71
2023/06/29 10:55:22;;;;;;;6.10;2.10;;;;;;;22.92;54.32;99187.64;105382;1253;64277;-73
2023/06/29 10:57:59;;;;;;;2.10;1.80;;;;;;;23.16;53.45;99186.48;105941;1253;60342;-71
2023/06/29 11:00:26;;;;;;;3.00;2.20;;;;;;;23.30;51.69;99185.10;105752;1253;65648;-71
2023/06/29 11:02:53;;;;;;;3.50;2.10;;;;;;;23.31;51.28;99184.43;105784;1257;60303;-72
2023/06/29 11:05:21;;;;;;;2.90;2.00;;;;;;;23.26;50.70;99189.33;105884;1253;60478;-72
2023/06/29 11:07:52;;;;;;;4.60;2.10;;;;;;;23.17;50.65;99183.01;105855;1254;65004;-72
2023/06/29 11:10:20;;;;;;;5.50;2.30;;;;;;;23.11;50.88;99186.54;105977;1253;60983;-72
2023/06/29 11:12:50;;;;;;;3.60;2.20;;;;;;;23.15;51.13;99191.70;105991;1253;63833;-73
2023/06/29 11:15:18;;;;;;;3.60;2.30;;;;;;;23.27;51.01;99191.87;105906;1258;60574;-71
2023/06/29 11:17:51;;;;;;;4.40;2.40;;;;;;;23.35;50.80;99186.35;105834;1256;60442;-71
2023/06/29 11:20:19;;;;;;;4.80;2.80;;;;;;;23.34;50.62;99176.58;105861;1253;64050;-70
2023/06/29 11:22:46;;;;;;;6.00;2.80;;;;;;;23.26;50.51;99174.45;105638;1253;186643;-70
2023/06/29 11:25:15;;;;;;;5.10;2.60;;;;;;;23.13;51.21;99181.79;105779;1256;64152;-72
2023/06/29 11:27:44;;;;;;;3.10;2.40;;;;;;;22.95;52.35;99188.55;105877;1253;60441;-71